sensor_id;sensor_type;location;lat;lon;timestamp;pressure;altitude;pressure_sealevel;temperature;humidity
12475;BME280;6302;42.624;23.334;2023-04-10T00:01:23;93374.66;;;7.17;100.00
12475;BME280;6302;42.624;23.334;2023-04-10T00:03:50;93376.91;;;7.15;100.00
12475;BME280;6302;42.624;23.334;2023-04-10T00:06:17;93375.00;;;7.12;98.04
12475;BME280;6302;42.624;23.334;2023-04-10T00:08:44;93376.91;;;7.15;96.20
12475;BME280;6302;42.624;23.334;2023-04-10T00:11:10;93372.38;;;7.16;96.67
12475;BME280;6302;42.624;23.334;2023-04-10T00:13:37;93376.06;;;7.04;97.11
12475;BME280;6302;42.624;23.334;2023-04-10T00:16:06;93369.69;;;7.05;96.85
12475;BME280;6302;42.624;23.334;2023-04-10T00:18:33;93365.53;;;7.04;96.99
12475;BME280;6302;42.624;23.334;2023-04-10T00:20:59;93365.19;;;7.09;97.04
12475;BME280;6302;42.624;23.334;2023-04-10T00:23:28;93366.28;;;7.05;96.58
12475;BME280;6302;42.624;23.334;2023-04-10T00:25:56;93362.53;;;7.06;96.98
12475;BME280;6302;42.624;23.334;2023-04-10T00:28:23;93364.41;;;7.05;96.33
12475;BME280;6302;42.624;23.334;2023-04-10T00:30:49;93362.53;;;7.09;95.81
12475;BME280;6302;42.624;23.334;2023-04-10T00:33:17;93358.75;;;7.07;96.01
12475;BME280;6302;42.624;23.334;2023-04-10T00:35:44;93363.31;;;7.13;94.86
12475;BME280;6302;42.624;23.334;2023-04-10T00:38:11;93354.19;;;6.97;95.59
12475;BME280;6302;42.624;23.334;2023-04-10T00:40:38;93356.13;;;7.07;95.16
12475;BME280;6302;42.624;23.334;2023-04-10T00:43:05;93353.09;;;7.01;94.64
12475;BME280;6302;42.624;23.334;2023-04-10T00:45:31;93354.25;;;7.07;94.35
12475;BME280;6302;42.624;23.334;2023-04-10T00:47:58;93352.72;;;7.06;94.87
12475;BME280;6302;42.624;23.334;2023-04-10T00:50:26;93356.47;;;6.98;93.83
12475;BME280;6302;42.624;23.334;2023-04-10T00:52:53;93357.19;;;6.95;94.35
12475;BME280;6302;42.624;23.334;2023-04-10T00:55:22;93357.53;;;6.94;94.34
12475;BME280;6302;42.624;23.334;2023-04-10T00:57:49;93345.88;;;6.91;94.70
12475;BME280;6302;42.624;23.334;2023-04-10T01:00:16;93349.69;;;6.97;94.44
12475;BME280;6302;42.624;23.334;2023-04-10T01:02:43;93343.69;;;7.00;94.37
12475;BME280;6302;42.624;23.334;2023-04-10T01:05:11;93341.03;;;7.00;94.63
12475;BME280;6302;42.624;23.334;2023-04-10T01:07:50;93341.38;;;6.95;95.50
12475;BME280;6302;42.624;23.334;2023-04-10T01:10:26;93341.81;;;7.04;95.04
12475;BME280;6302;42.624;23.334;2023-04-10T01:13:00;93341.00;;;6.93;95.91
12475;BME280;6302;42.624;23.334;2023-04-10T01:15:35;93333.88;;;6.97;96.64
12475;BME280;6302;42.624;23.334;2023-04-10T01:18:06;93338.38;;;6.97;96.59
12475;BME280;6302;42.624;23.334;2023-04-10T01:20:39;93332.31;;;6.89;97.82
12475;BME280;6302;42.624;23.334;2023-04-10T01:26:12;93337.25;;;6.98;99.02
12475;BME280;6302;42.624;23.334;2023-04-10T01:28:51;93332.69;;;6.91;99.56
12475;BME280;6302;42.624;23.334;2023-04-10T01:31:22;93333.09;;;6.93;100.00
12475;BME280;6302;42.624;23.334;2023-04-10T01:33:57;93333.06;;;6.86;100.00
12475;BME280;6302;42.624;23.334;2023-04-10T01:36:26;93324.41;;;6.89;100.00
12475;BME280;6302;42.624;23.334;2023-04-10T01:38:56;93326.28;;;6.89;100.00
12475;BME280;6302;42.624;23.334;2023-04-10T01:41:24;93329.28;;;6.87;100.00
12475;BME280;6302;42.624;23.334;2023-04-10T01:43:54;93334.59;;;6.91;100.00
12475;BME280;6302;42.624;23.334;2023-04-10T01:46:22;93334.56;;;6.87;100.00
12475;BME280;6302;42.624;23.334;2023-04-10T01:48:52;93332.34;;;6.93;100.00
12475;BME280;6302;42.624;23.334;2023-04-10T01:51:20;93331.59;;;6.92;100.00
12475;BME280;6302;42.624;23.334;2023-04-10T01:53:48;93334.25;;;6.96;100.00
12475;BME280;6302;42.624;23.334;2023-04-10T01:56:16;93333.84;;;6.94;100.00
12475;BME280;6302;42.624;23.334;2023-04-10T01:58:43;93336.84;;;6.92;100.00
12475;BME280;6302;42.624;23.334;2023-04-10T02:01:17;93329.38;;;7.01;100.00
12475;BME280;6302;42.624;23.334;2023-04-10T02:03:44;93329.38;;;7.01;100.00
12475;BME280;6302;42.624;23.334;2023-04-10T02:06:14;93327.53;;;7.09;100.00
12475;BME280;6302;42.624;23.334;2023-04-10T02:08:49;93331.34;;;7.15;100.00
12475;BME280;6302;42.624;23.334;2023-04-10T02:11:33;93321.16;;;7.13;100.00
12475;BME280;6302;42.624;23.334;2023-04-10T02:14:07;93319.66;;;7.16;100.00
12475;BME280;6302;42.624;23.334;2023-04-10T02:16:38;93315.13;;;7.09;100.00
12475;BME280;6302;42.624;23.334;2023-04-10T02:19:06;93320.41;;;7.16;100.00
12475;BME280;6302;42.624;23.334;2023-04-10T02:21:35;93314.81;;;7.25;100.00
12475;BME280;6302;42.624;23.334;2023-04-10T02:24:04;93315.97;;;7.31;100.00
12475;BME280;6302;42.624;23.334;2023-04-10T02:26:43;93306.94;;;7.32;100.00
12475;BME280;6302;42.624;23.334;2023-04-10T02:29:10;93305.84;;;7.33;100.00
12475;BME280;6302;42.624;23.334;2023-04-10T02:31:38;93302.44;;;7.36;100.00
12475;BME280;6302;42.624;23.334;2023-04-10T02:34:05;93299.44;;;7.38;100.00
12475;BME280;6302;42.624;23.334;2023-04-10T02:36:33;93291.53;;;7.41;100.00
12475;BME280;6302;42.624;23.334;2023-04-10T02:39:00;93297.97;;;7.47;100.00
12475;BME280;6302;42.624;23.334;2023-04-10T02:41:26;93285.16;;;7.49;100.00
12475;BME280;6302;42.624;23.334;2023-04-10T02:43:53;93263.28;;;7.35;100.00
12475;BME280;6302;42.624;23.334;2023-04-10T02:46:20;93288.94;;;7.52;100.00
12475;BME280;6302;42.624;23.334;2023-04-10T02:48:48;93279.91;;;7.53;100.00
12475;BME280;6302;42.624;23.334;2023-04-10T02:51:15;93283.69;;;7.59;100.00
12475;BME280;6302;42.624;23.334;2023-04-10T02:53:41;93283.69;;;7.59;100.00
12475;BME280;6302;42.624;23.334;2023-04-10T02:56:08;93277.66;;;7.55;100.00
12475;BME280;6302;42.624;23.334;2023-04-10T02:58:36;93275.41;;;7.57;100.00
12475;BME280;6302;42.624;23.334;2023-04-10T03:01:04;93273.16;;;7.55;100.00
12475;BME280;6302;42.624;23.334;2023-04-10T03:03:31;93279.91;;;7.56;100.00
12475;BME280;6302;42.624;23.334;2023-04-10T03:05:59;93269.34;;;7.49;100.00
12475;BME280;6302;42.624;23.334;2023-04-10T03:08:26;93276.13;;;7.54;100.00
12475;BME280;6302;42.624;23.334;2023-04-10T03:10:54;93281.41;;;7.54;100.00
12475;BME280;6302;42.624;23.334;2023-04-10T03:13:21;93281.41;;;7.54;100.00
12475;BME280;6302;42.624;23.334;2023-04-10T03:15:48;93286.69;;;7.50;100.00
12475;BME280;6302;42.624;23.334;2023-04-10T03:18:15;93285.19;;;7.53;100.00
12475;BME280;6302;42.624;23.334;2023-04-10T03:20:42;93287.81;;;7.53;100.00
12475;BME280;6302;42.624;23.334;2023-04-10T03:23:10;93283.69;;;7.55;100.00
12475;BME280;6302;42.624;23.334;2023-04-10T03:25:37;93279.91;;;7.53;100.00
12475;BME280;6302;42.624;23.334;2023-04-10T03:28:04;93278.00;;;7.53;100.00
12475;BME280;6302;42.624;23.334;2023-04-10T03:30:30;93287.81;;;7.53;100.00
12475;BME280;6302;42.624;23.334;2023-04-10T03:32:59;93280.69;;;7.57;100.00
12475;BME280;6302;42.624;23.334;2023-04-10T03:35:26;93279.94;;;7.60;100.00
12475;BME280;6302;42.624;23.334;2023-04-10T03:37:53;93276.91;;;7.54;100.00
12475;BME280;6302;42.624;23.334;2023-04-10T03:40:21;93267.47;;;7.53;100.00
12475;BME280;6302;42.624;23.334;2023-04-10T03:42:48;93279.16;;;7.56;100.00
12475;BME280;6302;42.624;23.334;2023-04-10T03:45:14;93285.94;;;7.57;100.00
12475;BME280;6302;42.624;23.334;2023-04-10T03:47:41;93288.22;;;7.62;100.00
12475;BME280;6302;42.624;23.334;2023-04-10T03:50:09;93287.47;;;7.65;100.00
12475;BME280;6302;42.624;23.334;2023-04-10T03:52:36;93284.84;;;7.65;100.00
12475;BME280;6302;42.624;23.334;2023-04-10T03:55:03;93285.59;;;7.62;100.00
12475;BME280;6302;42.624;23.334;2023-04-10T03:57:31;93292.75;;;7.65;100.00
12475;BME280;6302;42.624;23.334;2023-04-10T03:59:58;93292.00;;;7.64;100.00
12475;BME280;6302;42.624;23.334;2023-04-10T04:02:25;93300.69;;;7.65;100.00
12475;BME280;6302;42.624;23.334;2023-04-10T04:04:52;93301.06;;;7.67;100.00
12475;BME280;6302;42.624;23.334;2023-04-10T04:07:18;93296.53;;;7.67;100.00
12475;BME280;6302;42.624;23.334;2023-04-10T04:09:45;93301.78;;;7.64;100.00
12475;BME280;6302;42.624;23.334;2023-04-10T04:12:12;93310.09;;;7.62;100.00
12475;BME280;6302;42.624;23.334;2023-04-10T04:14:40;93310.06;;;7.66;100.00
12475;BME280;6302;42.624;23.334;2023-04-10T04:17:08;93307.09;;;7.71;100.00
12475;BME280;6302;42.624;23.334;2023-04-10T04:19:35;93309.34;;;7.69;100.00
12475;BME280;6302;42.624;23.334;2023-04-10T04:22:05;93313.88;;;7.72;100.00
12475;BME280;6302;42.624;23.334;2023-04-10T04:24:31;93315.03;;;7.74;100.00
12475;BME280;6302;42.624;23.334;2023-04-10T04:26:58;93309.34;;;7.76;100.00
12475;BME280;6302;42.624;23.334;2023-04-10T04:29:25;93316.13;;;7.73;100.00
12475;BME280;6302;42.624;23.334;2023-04-10T04:31:53;93320.28;;;7.78;100.00
12475;BME280;6302;42.624;23.334;2023-04-10T04:34:20;93319.91;;;7.69;100.00
12475;BME280;6302;42.624;23.334;2023-04-10T04:36:47;93316.88;;;7.70;100.00
12475;BME280;6302;42.624;23.334;2023-04-10T04:39:14;93312.00;;;7.76;100.00
12475;BME280;6302;42.624;23.334;2023-04-10T04:41:41;93317.66;;;7.74;100.00
12475;BME280;6302;42.624;23.334;2023-04-10T04:44:08;93321.44;;;7.77;100.00
12475;BME280;6302;42.624;23.334;2023-04-10T04:46:35;93322.94;;;7.74;100.00
12475;BME280;6302;42.624;23.334;2023-04-10T04:49:03;93325.19;;;7.83;100.00
12475;BME280;6302;42.624;23.334;2023-04-10T04:51:30;93328.97;;;7.82;100.00
12475;BME280;6302;42.624;23.334;2023-04-10T04:53:56;93326.38;;;7.96;100.00
12475;BME280;6302;42.624;23.334;2023-04-10T04:56:23;93330.50;;;7.94;100.00
12475;BME280;6302;42.624;23.334;2023-04-10T04:58:50;93331.63;;;7.89;100.00
12475;BME280;6302;42.624;23.334;2023-04-10T05:01:17;93333.53;;;7.96;100.00
12475;BME280;6302;42.624;23.334;2023-04-10T05:03:43;93335.81;;;7.97;100.00
12475;BME280;6302;42.624;23.334;2023-04-10T05:06:11;93339.56;;;8.03;100.00
12475;BME280;6302;42.624;23.334;2023-04-10T05:08:38;93347.09;;;7.94;100.00
12475;BME280;6302;42.624;23.334;2023-04-10T05:11:06;93343.38;;;8.02;100.00
12475;BME280;6302;42.624;23.334;2023-04-10T05:13:32;93346.38;;;8.15;100.00
12475;BME280;6302;42.624;23.334;2023-04-10T05:15:59;93341.88;;;8.22;100.00
12475;BME280;6302;42.624;23.334;2023-04-10T05:18:26;93341.16;;;8.32;100.00
12475;BME280;6302;42.624;23.334;2023-04-10T05:20:53;93348.72;;;8.34;100.00
12475;BME280;6302;42.624;23.334;2023-04-10T05:23:22;93344.22;;;8.41;100.00
12475;BME280;6302;42.624;23.334;2023-04-10T05:25:48;93344.94;;;8.45;100.00
12475;BME280;6302;42.624;23.334;2023-04-10T05:28:15;93352.50;;;8.47;100.00
12475;BME280;6302;42.624;23.334;2023-04-10T05:30:42;93350.25;;;8.52;100.00
12475;BME280;6302;42.624;23.334;2023-04-10T05:33:09;93307.25;;;8.34;100.00
12475;BME280;6302;42.624;23.334;2023-04-10T05:35:36;93340.41;;;8.74;100.00
12475;BME280;6302;42.624;23.334;2023-04-10T05:38:02;93341.19;;;8.85;100.00
12475;BME280;6302;42.624;23.334;2023-04-10T05:40:31;93339.66;;;8.91;100.00
12475;BME280;6302;42.624;23.334;2023-04-10T05:42:57;93341.91;;;9.00;100.00
12475;BME280;6302;42.624;23.334;2023-04-10T05:45:24;93347.22;;;9.00;100.00
12475;BME280;6302;42.624;23.334;2023-04-10T05:47:52;93342.66;;;8.97;100.00
12475;BME280;6302;42.624;23.334;2023-04-10T05:50:19;93348.34;;;9.02;100.00
12475;BME280;6302;42.624;23.334;2023-04-10T05:52:46;93341.16;;;9.10;100.00
12475;BME280;6302;42.624;23.334;2023-04-10T05:55:13;93351.72;;;9.17;100.00
12475;BME280;6302;42.624;23.334;2023-04-10T05:57:41;93349.47;;;9.05;100.00
12475;BME280;6302;42.624;23.334;2023-04-10T06:00:09;93356.28;;;8.92;100.00
12475;BME280;6302;42.624;23.334;2023-04-10T06:02:35;93354.00;;;8.87;100.00
12475;BME280;6302;42.624;23.334;2023-04-10T06:05:02;93362.31;;;8.99;100.00
12475;BME280;6302;42.624;23.334;2023-04-10T06:07:29;93352.84;;;9.09;100.00
12475;BME280;6302;42.624;23.334;2023-04-10T06:09:57;93361.56;;;9.02;100.00
12475;BME280;6302;42.624;23.334;2023-04-10T06:12:24;93358.88;;;9.16;100.00
12475;BME280;6302;42.624;23.334;2023-04-10T06:14:52;93363.81;;;8.97;100.00
12475;BME280;6302;42.624;23.334;2023-04-10T06:17:19;93359.28;;;8.94;100.00
12475;BME280;6302;42.624;23.334;2023-04-10T06:19:48;93358.53;;;9.00;100.00
12475;BME280;6302;42.624;23.334;2023-04-10T06:22:15;93359.28;;;9.08;100.00
12475;BME280;6302;42.624;23.334;2023-04-10T06:24:42;93358.50;;;9.11;100.00
12475;BME280;6302;42.624;23.334;2023-04-10T06:27:08;93357.78;;;9.03;100.00
12475;BME280;6302;42.624;23.334;2023-04-10T06:29:36;93355.50;;;9.09;100.00
12475;BME280;6302;42.624;23.334;2023-04-10T06:32:04;93354.00;;;9.08;100.00
12475;BME280;6302;42.624;23.334;2023-04-10T06:34:31;93357.78;;;9.10;100.00
12475;BME280;6302;42.624;23.334;2023-04-10T06:36:58;93363.41;;;9.20;100.00
12475;BME280;6302;42.624;23.334;2023-04-10T06:39:25;93350.97;;;9.20;100.00
12475;BME280;6302;42.624;23.334;2023-04-10T06:41:52;93350.56;;;9.22;100.00
12475;BME280;6302;42.624;23.334;2023-04-10T06:44:18;93357.75;;;9.28;100.00
12475;BME280;6302;42.624;23.334;2023-04-10T06:46:45;93366.06;;;9.23;100.00
12475;BME280;6302;42.624;23.334;2023-04-10T06:49:13;93358.50;;;9.25;100.00
12475;BME280;6302;42.624;23.334;2023-04-10T06:51:40;93369.03;;;9.43;100.00
12475;BME280;6302;42.624;23.334;2023-04-10T06:54:07;93366.03;;;9.27;100.00
12475;BME280;6302;42.624;23.334;2023-04-10T06:56:33;93370.22;;;9.21;100.00
12475;BME280;6302;42.624;23.334;2023-04-10T06:59:00;93345.31;;;9.04;100.00
12475;BME280;6302;42.624;23.334;2023-04-10T07:01:27;93369.84;;;9.22;100.00
12475;BME280;6302;42.624;23.334;2023-04-10T07:03:54;93381.16;;;9.23;100.00
12475;BME280;6302;42.624;23.334;2023-04-10T07:06:22;93383.81;;;9.33;100.00
12475;BME280;6302;42.624;23.334;2023-04-10T07:08:50;93379.28;;;9.30;97.84
12475;BME280;6302;42.624;23.334;2023-04-10T07:11:17;93377.41;;;9.13;100.00
12475;BME280;6302;42.624;23.334;2023-04-10T07:13:44;93374.38;;;9.04;100.00
12475;BME280;6302;42.624;23.334;2023-04-10T07:16:10;93354.00;;;8.94;100.00
12475;BME280;6302;42.624;23.334;2023-04-10T07:18:37;93372.88;;;9.10;100.00
12475;BME280;6302;42.624;23.334;2023-04-10T07:21:09;93375.13;;;9.18;100.00
12475;BME280;6302;42.624;23.334;2023-04-10T07:23:38;93368.31;;;9.21;100.00
12475;BME280;6302;42.624;23.334;2023-04-10T07:26:05;93376.66;;;9.23;100.00
12475;BME280;6302;42.624;23.334;2023-04-10T07:28:32;93375.88;;;9.19;100.00
12475;BME280;6302;42.624;23.334;2023-04-10T07:30:59;93376.25;;;9.25;100.00
12475;BME280;6302;42.624;23.334;2023-04-10T07:33:26;93382.25;;;9.43;96.71
12475;BME280;6302;42.624;23.334;2023-04-10T07:35:52;93377.38;;;9.31;96.49
12475;BME280;6302;42.624;23.334;2023-04-10T07:38:19;93382.69;;;9.13;100.00
12475;BME280;6302;42.624;23.334;2023-04-10T07:40:54;93375.88;;;9.23;100.00
12475;BME280;6302;42.624;23.334;2023-04-10T07:43:21;93381.91;;;9.30;99.47
12475;BME280;6302;42.624;23.334;2023-04-10T07:45:48;93387.22;;;9.23;100.00
12475;BME280;6302;42.624;23.334;2023-04-10T07:48:15;93384.16;;;9.35;100.00
12475;BME280;6302;42.624;23.334;2023-04-10T07:50:41;93385.66;;;9.47;100.00
12475;BME280;6302;42.624;23.334;2023-04-10T07:53:08;93390.91;;;9.57;100.00
12475;BME280;6302;42.624;23.334;2023-04-10T07:55:38;93379.53;;;9.74;99.36
12475;BME280;6302;42.624;23.334;2023-04-10T07:58:06;93387.84;;;9.80;99.35
12475;BME280;6302;42.624;23.334;2023-04-10T08:00:33;93368.94;;;9.71;100.00
12475;BME280;6302;42.624;23.334;2023-04-10T08:03:00;93379.50;;;9.81;98.93
12475;BME280;6302;42.624;23.334;2023-04-10T08:05:27;93383.69;;;9.68;98.39
12475;BME280;6302;42.624;23.334;2023-04-10T08:07:54;93375.72;;;9.79;99.33
12475;BME280;6302;42.624;23.334;2023-04-10T08:10:21;93376.44;;;9.87;98.49
12475;BME280;6302;42.624;23.334;2023-04-10T08:12:48;93377.94;;;9.95;97.34
12475;BME280;6302;42.624;23.334;2023-04-10T08:15:16;93383.22;;;9.88;97.20
12475;BME280;6302;42.624;23.334;2023-04-10T08:17:43;93379.03;;;10.01;96.63
12475;BME280;6302;42.624;23.334;2023-04-10T08:20:11;93386.94;;;10.11;97.08
12475;BME280;6302;42.624;23.334;2023-04-10T08:22:37;93383.09;;;10.23;96.83
12475;BME280;6302;42.624;23.334;2023-04-10T08:25:05;93376.28;;;10.29;95.79
12475;BME280;6302;42.624;23.334;2023-04-10T08:27:31;93380.00;;;10.35;95.68
12475;BME280;6302;42.624;23.334;2023-04-10T08:29:58;93384.53;;;10.41;95.41
12475;BME280;6302;42.624;23.334;2023-04-10T08:32:26;93380.00;;;10.35;95.01
12475;BME280;6302;42.624;23.334;2023-04-10T08:34:53;93377.09;;;10.19;94.72
12475;BME280;6302;42.624;23.334;2023-04-10T08:37:20;93375.13;;;10.30;95.09
12475;BME280;6302;42.624;23.334;2023-04-10T08:39:47;93375.13;;;10.30;95.15
12475;BME280;6302;42.624;23.334;2023-04-10T08:42:14;93369.44;;;10.31;94.47
12475;BME280;6302;42.624;23.334;2023-04-10T08:44:41;93374.38;;;10.29;93.76
12475;BME280;6302;42.624;23.334;2023-04-10T08:47:08;93371.00;;;10.25;93.87
12475;BME280;6302;42.624;23.334;2023-04-10T08:49:40;93377.44;;;10.21;95.28
12475;BME280;6302;42.624;23.334;2023-04-10T08:52:14;93380.00;;;10.35;94.38
12475;BME280;6302;42.624;23.334;2023-04-10T08:54:47;93374.34;;;10.36;94.01
12475;BME280;6302;42.624;23.334;2023-04-10T08:57:15;93370.88;;;10.43;93.91
12475;BME280;6302;42.624;23.334;2023-04-10T08:59:45;93375.41;;;10.46;93.61
12475;BME280;6302;42.624;23.334;2023-04-10T09:02:12;93361.84;;;10.37;92.98
12475;BME280;6302;42.624;23.334;2023-04-10T09:04:44;93372.06;;;10.38;94.28
12475;BME280;6302;42.624;23.334;2023-04-10T09:07:13;93381.13;;;10.41;93.79
12475;BME280;6302;42.624;23.334;2023-04-10T09:09:39;93371.66;;;10.43;93.71
12475;BME280;6302;42.624;23.334;2023-04-10T09:12:06;93363.66;;;10.47;92.86
12475;BME280;6302;42.624;23.334;2023-04-10T09:14:34;93358.78;;;10.42;94.08
12475;BME280;6302;42.624;23.334;2023-04-10T09:17:15;93361.41;;;10.49;94.75
12475;BME280;6302;42.624;23.334;2023-04-10T09:19:45;93367.53;;;10.39;93.75
12475;BME280;6302;42.624;23.334;2023-04-10T09:22:12;93364.78;;;10.53;92.98
12475;BME280;6302;42.624;23.334;2023-04-10T09:24:41;93361.06;;;10.43;93.43
12475;BME280;6302;42.624;23.334;2023-04-10T09:27:08;93359.84;;;10.55;94.14
12475;BME280;6302;42.624;23.334;2023-04-10T09:29:41;93358.59;;;10.67;91.23
12475;BME280;6302;42.624;23.334;2023-04-10T09:32:08;93357.06;;;10.69;92.54
12475;BME280;6302;42.624;23.334;2023-04-10T09:34:52;93355.16;;;10.73;91.72
12475;BME280;6302;42.624;23.334;2023-04-10T09:37:21;93356.34;;;10.69;89.62
12475;BME280;6302;42.624;23.334;2023-04-10T09:39:48;93352.25;;;10.57;90.79
12475;BME280;6302;42.624;23.334;2023-04-10T09:42:15;93348.47;;;10.55;92.20
12475;BME280;6302;42.624;23.334;2023-04-10T09:44:41;93348.81;;;10.60;90.98
12475;BME280;6302;42.624;23.334;2023-04-10T09:47:16;93348.09;;;10.56;88.54
12475;BME280;6302;42.624;23.334;2023-04-10T09:49:46;93353.09;;;10.43;89.81
12475;BME280;6302;42.624;23.334;2023-04-10T09:52:18;93352.81;;;10.27;90.69
12475;BME280;6302;42.624;23.334;2023-04-10T09:54:45;93352.81;;;10.31;93.12
12475;BME280;6302;42.624;23.334;2023-04-10T09:57:14;93348.22;;;10.35;92.57
12475;BME280;6302;42.624;23.334;2023-04-10T09:59:42;93347.47;;;10.34;94.04
12475;BME280;6302;42.624;23.334;2023-04-10T10:02:12;93339.03;;;10.50;93.30
12475;BME280;6302;42.624;23.334;2023-04-10T10:04:42;93338.94;;;10.64;92.37
12475;BME280;6302;42.624;23.334;2023-04-10T10:07:10;93331.53;;;10.93;91.70
12475;BME280;6302;42.624;23.334;2023-04-10T10:09:39;93329.13;;;11.05;90.32
12475;BME280;6302;42.624;23.334;2023-04-10T10:12:06;93333.28;;;11.06;89.24
12475;BME280;6302;42.624;23.334;2023-04-10T10:14:37;93334.38;;;11.13;89.68
12475;BME280;6302;42.624;23.334;2023-04-10T10:17:10;93318.19;;;11.03;88.96
12475;BME280;6302;42.624;23.334;2023-04-10T10:19:43;93326.78;;;11.15;88.91
12475;BME280;6302;42.624;23.334;2023-04-10T10:22:12;93328.97;;;11.23;86.41
12475;BME280;6302;42.624;23.334;2023-04-10T10:24:44;93322.13;;;11.26;81.65
12475;BME280;6302;42.624;23.334;2023-04-10T10:27:14;93324.03;;;11.22;80.94
12475;BME280;6302;42.624;23.334;2023-04-10T10:29:43;93321.47;;;11.15;81.67
12475;BME280;6302;42.624;23.334;2023-04-10T10:32:13;93321.66;;;11.31;83.53
12475;BME280;6302;42.624;23.334;2023-04-10T10:34:43;93323.84;;;11.43;83.13
12475;BME280;6302;42.624;23.334;2023-04-10T10:37:10;93317.59;;;11.60;82.86
12475;BME280;6302;42.624;23.334;2023-04-10T10:39:52;93307.50;;;11.82;80.73
12475;BME280;6302;42.624;23.334;2023-04-10T10:42:29;93307.28;;;11.96;79.93
12475;BME280;6302;42.624;23.334;2023-04-10T10:44:59;93300.28;;;11.82;72.05
12475;BME280;6302;42.624;23.334;2023-04-10T10:47:33;93302.19;;;11.48;75.09
12475;BME280;6302;42.624;23.334;2023-04-10T10:50:06;93285.41;;;11.54;76.87
12475;BME280;6302;42.624;23.334;2023-04-10T10:52:40;93289.81;;;11.68;76.86
12475;BME280;6302;42.624;23.334;2023-04-10T10:55:33;93292.25;;;11.86;72.86
12475;BME280;6302;42.624;23.334;2023-04-10T10:58:04;93290.91;;;11.74;75.62
12475;BME280;6302;42.624;23.334;2023-04-10T11:01:05;93283.81;;;11.94;75.12
12475;BME280;6302;42.624;23.334;2023-04-10T11:03:33;93281.28;;;12.10;75.88
12475;BME280;6302;42.624;23.334;2023-04-10T11:06:01;93273.59;;;12.19;71.18
12475;BME280;6302;42.624;23.334;2023-04-10T11:08:36;93263.91;;;12.32;72.84
12475;BME280;6302;42.624;23.334;2023-04-10T11:11:10;93269.00;;;12.70;73.47
12475;BME280;6302;42.624;23.334;2023-04-10T11:13:41;93270.28;;;12.85;71.65
12475;BME280;6302;42.624;23.334;2023-04-10T11:16:09;93257.00;;;13.08;71.95
12475;BME280;6302;42.624;23.334;2023-04-10T11:19:01;93254.75;;;13.46;71.47
12475;BME280;6302;42.624;23.334;2023-04-10T11:21:28;93255.69;;;13.55;67.31
12475;BME280;6302;42.624;23.334;2023-04-10T11:24:03;93244.44;;;13.28;66.54
12475;BME280;6302;42.624;23.334;2023-04-10T11:26:40;93245.78;;;12.74;68.06
12475;BME280;6302;42.624;23.334;2023-04-10T11:29:32;93247.09;;;12.39;69.03
12475;BME280;6302;42.624;23.334;2023-04-10T11:32:00;93244.38;;;12.19;69.79
12475;BME280;6302;42.624;23.334;2023-04-10T11:34:27;93242.81;;;12.22;70.67
12475;BME280;6302;42.624;23.334;2023-04-10T11:36:55;93238.41;;;12.12;70.95
12475;BME280;6302;42.624;23.334;2023-04-10T11:39:22;93239.13;;;11.89;69.88
12475;BME280;6302;42.624;23.334;2023-04-10T11:41:52;93240.69;;;11.83;71.00
12475;BME280;6302;42.624;23.334;2023-04-10T11:44:26;93239.25;;;11.79;74.39
12475;BME280;6302;42.624;23.334;2023-04-10T11:46:53;93232.34;;;11.54;76.04
12475;BME280;6302;42.624;23.334;2023-04-10T11:49:21;93239.63;;;11.47;76.86
12475;BME280;6302;42.624;23.334;2023-04-10T11:51:49;93243.47;;;11.42;78.03
12475;BME280;6302;42.624;23.334;2023-04-10T11:54:17;93238.13;;;11.46;76.77
12475;BME280;6302;42.624;23.334;2023-04-10T11:56:54;93227.50;;;11.46;77.06
12475;BME280;6302;42.624;23.334;2023-04-10T11:59:24;93228.44;;;11.32;76.57
12475;BME280;6302;42.624;23.334;2023-04-10T12:01:52;93229.34;;;11.19;76.65
12475;BME280;6302;42.624;23.334;2023-04-10T12:04:21;93235.28;;;10.96;79.24
12475;BME280;6302;42.624;23.334;2023-04-10T12:06:50;93228.19;;;10.86;80.85
12475;BME280;6302;42.624;23.334;2023-04-10T12:09:18;93230.84;;;10.45;78.11
12475;BME280;6302;42.624;23.334;2023-04-10T12:11:50;93229.03;;;10.35;79.99
12475;BME280;6302;42.624;23.334;2023-04-10T12:14:18;93226.31;;;10.42;82.67
12475;BME280;6302;42.624;23.334;2023-04-10T12:16:46;93229.03;;;10.35;82.81
12475;BME280;6302;42.624;23.334;2023-04-10T12:19:14;93228.66;;;10.36;84.65
12475;BME280;6302;42.624;23.334;2023-04-10T12:21:41;93237.59;;;10.53;85.78
12475;BME280;6302;42.624;23.334;2023-04-10T12:24:08;93247.34;;;10.19;89.58
12475;BME280;6302;42.624;23.334;2023-04-10T12:26:35;93233.06;;;9.95;97.67
12475;BME280;6302;42.624;23.334;2023-04-10T12:29:02;93247.13;;;9.85;100.00
12475;BME280;6302;42.624;23.334;2023-04-10T12:31:32;93263.84;;;9.71;100.00
12475;BME280;6302;42.624;23.334;2023-04-10T12:34:01;93250.06;;;9.29;100.00
12475;BME280;6302;42.624;23.334;2023-04-10T12:36:30;93244.81;;;9.25;100.00
12475;BME280;6302;42.624;23.334;2023-04-10T12:39:00;93248.22;;;9.26;100.00
12475;BME280;6302;42.624;23.334;2023-04-10T12:41:28;93253.50;;;9.18;100.00
12475;BME280;6302;42.624;23.334;2023-04-10T12:44:06;93251.66;;;9.08;100.00
12475;BME280;6302;42.624;23.334;2023-04-10T12:46:34;93241.88;;;8.98;100.00
12475;BME280;6302;42.624;23.334;2023-04-10T12:49:09;93237.69;;;9.04;100.00
12475;BME280;6302;42.624;23.334;2023-04-10T12:51:44;93235.41;;;9.10;100.00
12475;BME280;6302;42.624;23.334;2023-04-10T12:54:26;93239.19;;;9.12;100.00
12475;BME280;6302;42.624;23.334;2023-04-10T12:56:53;93241.44;;;9.14;100.00
12475;BME280;6302;42.624;23.334;2023-04-10T12:59:20;93229.31;;;9.27;100.00
12475;BME280;6302;42.624;23.334;2023-04-10T13:01:47;93235.28;;;9.42;100.00
12475;BME280;6302;42.624;23.334;2023-04-10T13:04:15;93230.72;;;9.49;100.00
12475;BME280;6302;42.624;23.334;2023-04-10T13:06:43;93223.53;;;9.46;100.00
12475;BME280;6302;42.624;23.334;2023-04-10T13:09:11;93227.66;;;9.58;100.00
12475;BME280;6302;42.624;23.334;2023-04-10T13:11:37;93229.53;;;9.57;100.00
12475;BME280;6302;42.624;23.334;2023-04-10T13:14:04;93220.84;;;9.53;100.00